Time;durP1;ratioP1;P1;durP2;ratioP2;P2;SDS_P1;SDS_P2;PMS_P1;PMS_P2;Temp;Humidity;BMP_temperature;BMP_pressure;BME280_temperature;BME280_humidity;BME280_pressure;Samples;Min_cycle;Max_cycle;Signal;HPM_P1;HPM_P2
2021/07/29 00:01:52;;;;;;;4.17;3.47;;;;;;;;;;5030270;28;20219;-85
2021/07/29 00:04:56;;;;;;;6.13;3.70;;;;;;;;;;5030808;28;20192;-86
2021/07/29 00:08:00;;;;;;;4.47;3.53;;;;;;;;;;5030849;28;20512;-85
2021/07/29 00:11:04;;;;;;;11.17;4.17;;;;;;;;;;5030975;28;20227;-85
2021/07/29 00:14:08;;;;;;;6.43;3.90;;;;;;;;;;5030600;28;20187;-86
2021/07/29 00:17:27;;;;;;;5.73;3.97;;;;;;;;;;5028861;28;20184;-86
2021/07/29 00:20:33;;;;;;;8.47;4.40;;;;;;;;;;5026731;28;20228;-86
2021/07/29 00:23:37;;;;;;;5.37;4.00;;;;;;;;;;5035178;28;20204;-85
2021/07/29 00:26:41;;;;;;;6.27;3.60;;;;;;;;;;5023193;28;20204;-85
2021/07/29 00:29:45;;;;;;;6.63;3.97;;;;;;;;;;5022236;28;20173;-85
2021/07/29 00:32:54;;;;;;;8.23;3.93;;;;;;;;;;5022380;28;20196;-86
2021/07/29 00:35:58;;;;;;;8.50;3.97;;;;;;;;;;4995050;28;20537;-85
2021/07/29 00:39:02;;;;;;;7.37;4.20;;;;;;;;;;4995746;28;20212;-85
2021/07/29 00:42:06;;;;;;;7.57;3.93;;;;;;;;;;5022222;28;20184;-85
2021/07/29 00:45:11;;;;;;;4.70;4.07;;;;;;;;;;5041082;28;20196;-86
2021/07/29 00:48:18;;;;;;;7.23;3.60;;;;;;;;;;5030284;28;20192;-85
2021/07/29 00:51:22;;;;;;;14.10;4.60;;;;;;;;;;5015446;28;20679;-85
2021/07/29 00:54:30;;;;;;;8.40;4.80;;;;;;;;;;5010479;28;20192;-86
2021/07/29 00:57:34;;;;;;;7.97;4.77;;;;;;;;;;5030632;28;20184;-85
2021/07/29 01:00:38;;;;;;;4.50;3.63;;;;;;;;;;5025394;28;20580;-85
2021/07/29 01:03:42;;;;;;;5.30;4.17;;;;;;;;;;5018613;28;20200;-85
2021/07/29 01:06:46;;;;;;;5.13;4.07;;;;;;;;;;5041587;28;20199;-85
2021/07/29 01:09:51;;;;;;;6.70;4.23;;;;;;;;;;4999247;28;20201;-85
2021/07/29 01:12:55;;;;;;;5.33;4.13;;;;;;;;;;5022948;28;20196;-85
2021/07/29 01:15:59;;;;;;;9.13;4.50;;;;;;;;;;5030031;28;20191;-85
2021/07/29 01:19:05;;;;;;;9.23;4.50;;;;;;;;;;5040224;28;20203;-85
2021/07/29 01:22:09;;;;;;;11.77;4.67;;;;;;;;;;5038538;28;20200;-85
2021/07/29 01:25:14;;;;;;;8.93;5.17;;;;;;;;;;5029410;28;20192;-85
2021/07/29 01:28:18;;;;;;;9.13;4.70;;;;;;;;;;5018472;28;20192;-85
2021/07/29 01:31:23;;;;;;;5.83;4.33;;;;;;;;;;5039885;28;20694;-85
2021/07/29 01:34:27;;;;;;;7.97;4.57;;;;;;;;;;5023096;28;20204;-85
2021/07/29 01:37:31;;;;;;;5.10;4.53;;;;;;;;;;5029696;28;20180;-86
2021/07/29 01:40:36;;;;;;;5.10;4.60;;;;;;;;;;5028950;28;20223;-85
2021/07/29 01:43:40;;;;;;;4.70;4.20;;;;;;;;;;5028738;28;20177;-85
2021/07/29 01:46:44;;;;;;;4.93;4.27;;;;;;;;;;5040439;28;20200;-85
2021/07/29 01:49:49;;;;;;;11.33;4.87;;;;;;;;;;5039569;28;20659;-85
2021/07/29 01:52:53;;;;;;;6.10;4.50;;;;;;;;;;5020967;28;20192;-84
2021/07/29 01:55:57;;;;;;;6.47;4.40;;;;;;;;;;5021512;28;20193;-85
2021/07/29 01:59:06;;;;;;;6.93;4.53;;;;;;;;;;5027177;28;20193;-85
2021/07/29 02:02:10;;;;;;;5.20;4.07;;;;;;;;;;5033944;28;20548;-85
2021/07/29 02:05:14;;;;;;;10.93;4.70;;;;;;;;;;5032469;28;20183;-85
2021/07/29 02:08:18;;;;;;;6.87;4.63;;;;;;;;;;5032774;28;20199;-84
2021/07/29 02:11:37;;;;;;;5.93;4.00;;;;;;;;;;4998265;28;20229;-85
2021/07/29 02:14:41;;;;;;;11.43;4.30;;;;;;;;;;5043114;28;20196;-85
2021/07/29 02:17:46;;;;;;;5.67;4.93;;;;;;;;;;5037992;28;20192;-85
2021/07/29 02:20:50;;;;;;;6.77;4.53;;;;;;;;;;5043275;28;20228;-85
2021/07/29 02:23:55;;;;;;;9.03;4.43;;;;;;;;;;5042229;28;20306;-85
2021/07/29 02:26:58;;;;;;;7.90;4.07;;;;;;;;;;5035596;28;20188;-85
2021/07/29 02:30:03;;;;;;;11.37;4.50;;;;;;;;;;5002121;28;20212;-85
2021/07/29 02:33:08;;;;;;;8.23;4.03;;;;;;;;;;5025512;28;20181;-85
2021/07/29 02:36:14;;;;;;;7.77;4.57;;;;;;;;;;5025107;28;20192;-85
2021/07/29 02:39:20;;;;;;;7.70;4.07;;;;;;;;;;5030456;28;20200;-85
2021/07/29 02:42:25;;;;;;;5.00;4.10;;;;;;;;;;5011403;28;20189;-85
2021/07/29 02:45:29;;;;;;;5.17;4.17;;;;;;;;;;5028909;28;20188;-85
2021/07/29 02:48:33;;;;;;;6.90;3.90;;;;;;;;;;5033190;28;20627;-85
2021/07/29 02:51:37;;;;;;;7.83;4.87;;;;;;;;;;5031722;28;20216;-85
2021/07/29 02:54:43;;;;;;;8.23;4.27;;;;;;;;;;5003846;28;20185;-85
2021/07/29 02:57:48;;;;;;;4.10;3.70;;;;;;;;;;4998609;28;20188;-85
2021/07/29 03:00:52;;;;;;;5.87;4.10;;;;;;;;;;5009931;28;20228;-85
2021/07/29 03:03:56;;;;;;;8.97;3.97;;;;;;;;;;5029155;28;20552;-86
2021/07/29 03:07:00;;;;;;;5.77;4.13;;;;;;;;;;5024061;28;20667;-86
2021/07/29 03:10:05;;;;;;;4.23;3.67;;;;;;;;;;5023881;28;20208;-85
2021/07/29 03:13:09;;;;;;;9.53;3.90;;;;;;;;;;5034710;28;20181;-85
2021/07/29 03:16:13;;;;;;;6.83;4.07;;;;;;;;;;4993444;28;20185;-85
2021/07/29 03:19:17;;;;;;;5.53;4.10;;;;;;;;;;5014647;28;20188;-85
2021/07/29 03:22:21;;;;;;;4.73;3.70;;;;;;;;;;5012853;28;20188;-85
2021/07/29 03:25:26;;;;;;;5.23;3.70;;;;;;;;;;5034144;28;20197;-84
2021/07/29 03:28:30;;;;;;;4.97;3.87;;;;;;;;;;5024237;28;20189;-85
2021/07/29 03:31:35;;;;;;;4.97;3.60;;;;;;;;;;5017288;28;20221;-85
2021/07/29 03:34:39;;;;;;;8.47;4.00;;;;;;;;;;5023435;28;20196;-85
2021/07/29 03:37:43;;;;;;;7.40;4.10;;;;;;;;;;5029096;28;20195;-85
2021/07/29 03:40:47;;;;;;;7.57;4.33;;;;;;;;;;5042816;28;20232;-85
2021/07/29 03:43:51;;;;;;;7.60;4.80;;;;;;;;;;5029790;28;20199;-84
2021/07/29 03:46:55;;;;;;;6.53;4.13;;;;;;;;;;5042463;28;20195;-85
2021/07/29 03:49:59;;;;;;;7.73;4.50;;;;;;;;;;5029852;28;20224;-86
2021/07/29 03:53:03;;;;;;;6.93;4.70;;;;;;;;;;5027901;28;20643;-85
2021/07/29 03:56:07;;;;;;;6.60;4.60;;;;;;;;;;5025155;28;20185;-87
2021/07/29 03:59:11;;;;;;;5.67;4.37;;;;;;;;;;5022842;28;20201;-87
2021/07/29 04:02:16;;;;;;;7.63;4.87;;;;;;;;;;5033782;28;20189;-87
2021/07/29 04:05:20;;;;;;;4.80;4.30;;;;;;;;;;5038869;28;20536;-87
2021/07/29 04:08:24;;;;;;;7.50;4.37;;;;;;;;;;5043081;28;20184;-85
2021/07/29 04:11:28;;;;;;;9.03;4.67;;;;;;;;;;5042372;28;20701;-85
2021/07/29 04:14:33;;;;;;;7.83;4.80;;;;;;;;;;5029375;28;20188;-86
2021/07/29 04:17:38;;;;;;;5.83;4.33;;;;;;;;;;5015952;28;20203;-85
2021/07/29 04:20:43;;;;;;;13.10;4.73;;;;;;;;;;5031613;28;20228;-84
2021/07/29 04:23:47;;;;;;;5.47;4.10;;;;;;;;;;5010421;28;20205;-85
2021/07/29 04:26:52;;;;;;;5.43;3.77;;;;;;;;;;5019577;28;20204;-85
2021/07/29 05:04:31;;;;;;;9.20;3.93;;;;;;;;;;4973003;28;20199;-89
2021/07/29 05:07:35;;;;;;;10.63;4.47;;;;;;;;;;4954576;28;20194;-88
2021/07/29 05:10:39;;;;;;;11.03;4.67;;;;;;;;;;4955155;28;20218;-88
2021/07/29 05:13:43;;;;;;;6.40;4.50;;;;;;;;;;5006305;28;20185;-88
2021/07/29 05:16:48;;;;;;;10.53;4.30;;;;;;;;;;5021518;28;20659;-89
2021/07/29 05:19:52;;;;;;;11.40;3.80;;;;;;;;;;5029412;28;20537;-89
2021/07/29 05:22:56;;;;;;;7.27;3.90;;;;;;;;;;5029830;28;20192;-89
2021/07/29 05:26:00;;;;;;;8.17;4.20;;;;;;;;;;5030337;28;20619;-89
2021/07/29 05:29:06;;;;;;;8.47;4.00;;;;;;;;;;5035029;28;20188;-89
2021/07/29 05:32:10;;;;;;;11.10;4.17;;;;;;;;;;5041225;28;20191;-90
2021/07/29 05:35:14;;;;;;;4.80;4.10;;;;;;;;;;5022483;28;20183;-88
2021/07/29 05:38:18;;;;;;;5.33;3.77;;;;;;;;;;5033344;28;20192;-89
2021/07/29 05:41:43;;;;;;;7.33;4.40;;;;;;;;;;5018475;28;20228;-90
2021/07/29 05:44:47;;;;;;;5.83;4.13;;;;;;;;;;5029313;28;20651;-90
2021/07/29 05:47:51;;;;;;;4.97;4.13;;;;;;;;;;5022108;28;20204;-90
2021/07/29 05:50:56;;;;;;;6.17;4.57;;;;;;;;;;5010400;28;20223;-88
2021/07/29 05:54:00;;;;;;;7.47;4.10;;;;;;;;;;5025133;28;20192;-90
2021/07/29 05:57:04;;;;;;;9.00;4.33;;;;;;;;;;5011960;28;20177;-90
2021/07/29 06:00:09;;;;;;;7.63;4.93;;;;;;;;;;5013476;28;20224;-90
2021/07/29 06:03:15;;;;;;;8.83;3.63;;;;;;;;;;5019674;28;20189;-90
2021/07/29 06:06:22;;;;;;;8.70;4.53;;;;;;;;;;5030590;28;20180;-90
2021/07/29 06:09:28;;;;;;;4.83;4.10;;;;;;;;;;5041302;28;20200;-90
2021/07/29 06:12:33;;;;;;;5.73;4.07;;;;;;;;;;5002280;28;20189;-89
2021/07/29 06:15:37;;;;;;;7.40;4.00;;;;;;;;;;5024852;28;20204;-90
2021/07/29 06:18:51;;;;;;;12.80;4.10;;;;;;;;;;5044799;28;20184;-91
2021/07/29 06:21:59;;;;;;;6.77;3.57;;;;;;;;;;5032383;28;20219;-91
2021/07/29 06:25:08;;;;;;;5.60;3.90;;;;;;;;;;5032712;28;20184;-91
2021/07/29 06:28:14;;;;;;;3.90;3.57;;;;;;;;;;5032748;28;20644;-91
2021/07/29 06:31:18;;;;;;;6.70;3.90;;;;;;;;;;5013287;28;20553;-91
2021/07/29 06:34:22;;;;;;;5.83;3.50;;;;;;;;;;5021415;28;20192;-91
2021/07/29 06:37:26;;;;;;;6.13;3.97;;;;;;;;;;5033182;28;20634;-91
2021/07/29 06:40:30;;;;;;;4.40;3.70;;;;;;;;;;5032573;28;20698;-91
2021/07/29 06:43:35;;;;;;;6.37;3.50;;;;;;;;;;5032969;28;20184;-91
2021/07/29 06:46:40;;;;;;;5.60;3.63;;;;;;;;;;5044190;28;20177;-91
2021/07/29 06:49:44;;;;;;;3.70;3.00;;;;;;;;;;5035972;28;20639;-91
2021/07/29 06:52:50;;;;;;;5.97;3.90;;;;;;;;;;5030844;28;20192;-90
2021/07/29 06:55:53;;;;;;;6.30;3.63;;;;;;;;;;5032269;28;20188;-90
2021/07/29 06:59:01;;;;;;;3.93;3.33;;;;;;;;;;5023545;28;20192;-91
2021/07/29 07:02:09;;;;;;;6.20;3.93;;;;;;;;;;5033104;28;20204;-89
2021/07/29 07:05:14;;;;;;;4.40;3.67;;;;;;;;;;5044418;28;20196;-88
2021/07/29 07:08:18;;;;;;;5.90;3.50;;;;;;;;;;5032159;28;20184;-89
2021/07/29 07:11:22;;;;;;;5.03;3.50;;;;;;;;;;5043406;28;20208;-88
2021/07/29 07:14:26;;;;;;;6.97;4.07;;;;;;;;;;5032190;28;20180;-89
2021/07/29 07:17:30;;;;;;;9.17;3.70;;;;;;;;;;5029669;28;20184;-88
2021/07/29 07:20:36;;;;;;;5.73;3.70;;;;;;;;;;5031946;28;20682;-89
2021/07/29 07:23:40;;;;;;;4.97;3.83;;;;;;;;;;5023309;28;20196;-90
2021/07/29 07:26:45;;;;;;;5.80;3.90;;;;;;;;;;5023776;28;20196;-85
2021/07/29 07:29:49;;;;;;;6.17;4.07;;;;;;;;;;5031523;28;20192;-85
2021/07/29 07:32:54;;;;;;;5.70;3.63;;;;;;;;;;5031913;28;20176;-86
2021/07/29 07:35:58;;;;;;;4.77;3.70;;;;;;;;;;5043512;28;20188;-86
2021/07/29 07:39:02;;;;;;;5.00;3.30;;;;;;;;;;5022980;28;20643;-86
2021/07/29 07:42:06;;;;;;;5.70;3.50;;;;;;;;;;5031166;28;20212;-85
2021/07/29 07:45:10;;;;;;;4.27;3.10;;;;;;;;;;5026981;28;20207;-87
2021/07/29 07:48:14;;;;;;;6.93;4.00;;;;;;;;;;5024318;28;20189;-86
2021/07/29 07:51:19;;;;;;;7.50;2.87;;;;;;;;;;5031623;28;20217;-86
2021/07/29 07:54:23;;;;;;;4.97;3.27;;;;;;;;;;5031119;28;20197;-86
2021/07/29 07:57:27;;;;;;;4.27;2.93;;;;;;;;;;5035169;28;20191;-87
2021/07/29 08:00:31;;;;;;;4.50;3.33;;;;;;;;;;5017251;28;20211;-86
2021/07/29 08:03:35;;;;;;;4.07;3.03;;;;;;;;;;5027945;28;20188;-86
2021/07/29 08:06:39;;;;;;;3.40;2.83;;;;;;;;;;5042265;28;20193;-86
2021/07/29 08:09:44;;;;;;;4.77;3.07;;;;;;;;;;5031326;28;20183;-86
2021/07/29 08:12:48;;;;;;;3.20;2.47;;;;;;;;;;5031205;28;20641;-86
2021/07/29 08:15:52;;;;;;;4.57;3.07;;;;;;;;;;5042401;28;20187;-86
2021/07/29 08:18:56;;;;;;;4.77;3.07;;;;;;;;;;5031008;28;20174;-86
2021/07/29 08:22:00;;;;;;;4.70;2.42;;;;;;;;;;5019377;28;20570;-86
2021/07/29 08:25:05;;;;;;;3.38;2.78;;;;;;;;;;5042447;28;20182;-86
2021/07/29 08:28:10;;;;;;;6.50;2.80;;;;;;;;;;5030786;28;20185;-86
2021/07/29 08:31:15;;;;;;;4.57;2.50;;;;;;;;;;5042435;28;20214;-86
2021/07/29 08:34:19;;;;;;;4.13;2.58;;;;;;;;;;5041959;28;20646;-86
2021/07/29 08:37:23;;;;;;;2.58;2.38;;;;;;;;;;5030769;28;20199;-86
2021/07/29 08:40:27;;;;;;;3.08;2.50;;;;;;;;;;5019343;28;20213;-86
2021/07/29 08:43:33;;;;;;;5.45;2.50;;;;;;;;;;5042071;28;20210;-86
2021/07/29 08:46:43;;;;;;;3.83;2.58;;;;;;;;;;5030718;28;20187;-86
2021/07/29 08:49:54;;;;;;;3.17;2.60;;;;;;;;;;5030123;28;20202;-86
2021/07/29 08:52:57;;;;;;;5.05;2.42;;;;;;;;;;5030281;28;20192;-86
2021/07/29 08:56:01;;;;;;;3.03;2.72;;;;;;;;;;5030272;28;20184;-86
2021/07/29 08:59:07;;;;;;;4.97;2.80;;;;;;;;;;5030312;28;20221;-86
2021/07/29 09:02:27;;;;;;;4.95;2.92;;;;;;;;;;5030283;28;20206;-86
2021/07/29 09:05:31;;;;;;;4.78;2.70;;;;;;;;;;5042072;28;20190;-86
2021/07/29 09:09:02;;;;;;;2.90;2.38;;;;;;;;;;5030056;28;20182;-86
2021/07/29 09:12:21;;;;;;;5.65;2.97;;;;;;;;;;5029153;28;20185;-86
2021/07/29 09:15:25;;;;;;;3.75;2.80;;;;;;;;;;5030274;28;20186;-86
2021/07/29 09:18:36;;;;;;;4.97;2.80;;;;;;;;;;5030116;28;20181;-86
2021/07/29 09:21:40;;;;;;;3.35;2.40;;;;;;;;;;5029876;28;20226;-86
2021/07/29 09:24:57;;;;;;;4.15;2.50;;;;;;;;;;5029950;28;20195;-86
2021/07/29 09:28:03;;;;;;;4.25;2.65;;;;;;;;;;5030246;28;20186;-86
2021/07/29 09:31:21;;;;;;;3.10;2.33;;;;;;;;;;5013978;28;20681;-86
2021/07/29 09:34:25;;;;;;;3.75;2.63;;;;;;;;;;5030160;28;20183;-86
2021/07/29 09:37:29;;;;;;;3.72;2.30;;;;;;;;;;5029959;28;20182;-86
2021/07/29 09:41:00;;;;;;;4.40;2.70;;;;;;;;;;5029771;28;20225;-86
2021/07/29 09:44:04;;;;;;;2.83;2.38;;;;;;;;;;5029801;28;20217;-86
2021/07/29 09:47:09;;;;;;;3.95;2.67;;;;;;;;;;5029907;28;20189;-86
2021/07/29 09:50:13;;;;;;;4.32;3.00;;;;;;;;;;5018947;28;20219;-86
2021/07/29 09:53:19;;;;;;;4.53;2.72;;;;;;;;;;5041249;28;20175;-86
2021/07/29 09:56:23;;;;;;;3.35;2.80;;;;;;;;;;5029821;28;20182;-86
2021/07/29 09:59:27;;;;;;;3.47;2.40;;;;;;;;;;5029844;28;20206;-86
2021/07/29 10:02:31;;;;;;;5.93;2.55;;;;;;;;;;5029316;28;20226;-86
2021/07/29 10:05:45;;;;;;;3.92;2.83;;;;;;;;;;5041092;28;20187;-86
2021/07/29 10:08:58;;;;;;;2.90;2.63;;;;;;;;;;5041428;23;20229;-84
2021/07/29 10:12:02;;;;;;;8.15;3.17;;;;;;;;;;5029670;28;20169;-84
2021/07/29 10:15:06;;;;;;;2.67;2.38;;;;;;;;;;5029347;28;20182;-84
2021/07/29 10:18:13;;;;;;;3.60;2.58;;;;;;;;;;5040996;28;20555;-84
2021/07/29 10:21:24;;;;;;;4.88;2.75;;;;;;;;;;5029554;28;20179;-84
2021/07/29 10:24:51;;;;;;;3.15;2.72;;;;;;;;;;5021560;28;20202;-85
2021/07/29 10:28:22;;;;;;;3.78;3.20;;;;;;;;;;5044457;28;20517;-84
2021/07/29 10:31:49;;;;;;;3.72;2.78;;;;;;;;;;5026093;28;20520;-85
2021/07/29 10:34:53;;;;;;;3.58;2.50;;;;;;;;;;5021728;28;20617;-84
2021/07/29 10:37:58;;;;;;;2.85;2.60;;;;;;;;;;5021391;28;20187;-85
2021/07/29 10:41:05;;;;;;;5.43;3.05;;;;;;;;;;5016136;28;20192;-85
2021/07/29 10:44:32;;;;;;;3.97;2.88;;;;;;;;;;5021317;28;20181;-84
2021/07/29 10:47:38;;;;;;;4.25;3.08;;;;;;;;;;5032178;28;20194;-85
2021/07/29 10:51:18;;;;;;;3.42;3.00;;;;;;;;;;5032673;28;20180;-84
2021/07/29 10:54:22;;;;;;;4.57;2.65;;;;;;;;;;5032879;28;20190;-85
2021/07/29 10:57:27;;;;;;;6.25;2.92;;;;;;;;;;5033210;28;20529;-85
2021/07/29 11:00:31;;;;;;;2.85;2.63;;;;;;;;;;5032487;28;20182;-85
2021/07/29 11:03:35;;;;;;;4.07;2.85;;;;;;;;;;5020918;28;20675;-85
2021/07/29 11:07:01;;;;;;;4.15;2.63;;;;;;;;;;5034668;28;20190;-85
2021/07/29 11:10:10;;;;;;;3.05;2.70;;;;;;;;;;5015854;28;20222;-84
2021/07/29 11:13:15;;;;;;;4.07;2.80;;;;;;;;;;5032355;28;20190;-85
2021/07/29 11:16:21;;;;;;;4.72;2.90;;;;;;;;;;5043123;28;20195;-85
2021/07/29 11:19:25;;;;;;;4.07;3.10;;;;;;;;;;5020549;28;20220;-85
2021/07/29 11:22:30;;;;;;;3.55;3.13;;;;;;;;;;5031951;28;20228;-85
2021/07/29 11:25:34;;;;;;;3.13;2.80;;;;;;;;;;5043202;28;20188;-85
2021/07/29 11:28:38;;;;;;;5.13;3.00;;;;;;;;;;5043219;28;20227;-85
2021/07/29 11:31:42;;;;;;;4.63;2.60;;;;;;;;;;5020389;28;20176;-85
2021/07/29 11:34:46;;;;;;;3.10;2.70;;;;;;;;;;5031183;28;20189;-85
2021/07/29 11:37:50;;;;;;;4.18;2.88;;;;;;;;;;5031675;28;20180;-85
2021/07/29 11:41:00;;;;;;;6.20;2.92;;;;;;;;;;5031748;28;20180;-85
2021/07/29 11:44:04;;;;;;;4.10;3.15;;;;;;;;;;5031291;28;20204;-85
2021/07/29 11:47:08;;;;;;;4.03;2.90;;;;;;;;;;5031373;28;20204;-85
2021/07/29 11:50:12;;;;;;;3.15;2.65;;;;;;;;;;5020225;28;20623;-85
2021/07/29 11:53:17;;;;;;;4.25;2.80;;;;;;;;;;5020222;28;20177;-85
2021/07/29 11:56:21;;;;;;;2.92;2.65;;;;;;;;;;5020416;28;20180;-85
2021/07/29 11:59:46;;;;;;;4.38;3.03;;;;;;;;;;5031281;28;20208;-85
2021/07/29 12:02:51;;;;;;;3.55;2.85;;;;;;;;;;5030780;28;20200;-85
2021/07/29 12:05:57;;;;;;;6.70;2.60;;;;;;;;;;5020155;28;20181;-85
2021/07/29 12:09:02;;;;;;;3.35;3.05;;;;;;;;;;5019628;28;20224;-84
2021/07/29 12:12:06;;;;;;;4.22;3.28;;;;;;;;;;5030998;28;20196;-84
2021/07/29 12:15:13;;;;;;;7.80;3.17;;;;;;;;;;5030679;28;20196;-84
2021/07/29 12:18:22;;;;;;;3.25;2.95;;;;;;;;;;5019665;28;20215;-85
2021/07/29 12:21:33;;;;;;;4.57;2.97;;;;;;;;;;5031138;28;20184;-85
2021/07/29 12:24:44;;;;;;;4.20;3.22;;;;;;;;;;5042834;28;20186;-85
2021/07/29 12:27:48;;;;;;;3.63;3.13;;;;;;;;;;5031174;28;20187;-85
2021/07/29 12:30:52;;;;;;;3.58;2.83;;;;;;;;;;5019312;28;20634;-84
2021/07/29 12:34:05;;;;;;;4.88;2.97;;;;;;;;;;5019562;28;20629;-84
2021/07/29 12:37:10;;;;;;;4.18;2.90;;;;;;;;;;5015356;28;20204;-84
2021/07/29 12:40:25;;;;;;;4.90;3.15;;;;;;;;;;5019787;28;20665;-84
2021/07/29 12:43:31;;;;;;;4.80;2.80;;;;;;;;;;5031122;28;20219;-85
2021/07/29 12:46:35;;;;;;;4.90;3.20;;;;;;;;;;5041914;28;20197;-84
2021/07/29 12:49:40;;;;;;;4.72;2.80;;;;;;;;;;5030293;28;20700;-84
2021/07/29 12:52:44;;;;;;;5.82;3.03;;;;;;;;;;5041830;28;20516;-85
2021/07/29 12:55:50;;;;;;;5.63;3.05;;;;;;;;;;5019837;28;20194;-85
2021/07/29 12:58:54;;;;;;;5.03;3.22;;;;;;;;;;5041531;28;20214;-84
2021/07/29 13:01:57;;;;;;;5.28;2.92;;;;;;;;;;5030405;28;20646;-85
2021/07/29 13:05:02;;;;;;;12.10;3.42;;;;;;;;;;5018896;28;20191;-85
2021/07/29 13:08:06;;;;;;;2.80;2.45;;;;;;;;;;5030283;28;20229;-85
2021/07/29 13:11:10;;;;;;;4.90;3.17;;;;;;;;;;5029988;28;20176;-85
2021/07/29 13:14:14;;;;;;;4.78;3.03;;;;;;;;;;5041196;28;20184;-85
2021/07/29 13:17:18;;;;;;;3.10;2.80;;;;;;;;;;5018879;28;20180;-84
2021/07/29 13:20:23;;;;;;;5.30;3.08;;;;;;;;;;5019443;28;20180;-85
2021/07/29 13:23:27;;;;;;;3.22;2.80;;;;;;;;;;5030169;28;20208;-85
2021/07/29 13:26:30;;;;;;;3.30;2.88;;;;;;;;;;5018760;28;20184;-85
2021/07/29 13:29:35;;;;;;;3.50;3.20;;;;;;;;;;5018366;28;20216;-85
2021/07/29 13:32:39;;;;;;;3.17;2.85;;;;;;;;;;5041397;28;20176;-85
2021/07/29 13:35:44;;;;;;;4.55;3.30;;;;;;;;;;5029909;28;20184;-84
2021/07/29 13:38:49;;;;;;;4.07;3.22;;;;;;;;;;5018130;28;20224;-85
2021/07/29 13:41:53;;;;;;;3.13;2.70;;;;;;;;;;5018428;28;20533;-85
2021/07/29 13:45:16;;;;;;;4.68;2.90;;;;;;;;;;5053252;28;20526;-85
2021/07/29 13:48:20;;;;;;;3.67;3.10;;;;;;;;;;5018735;28;20224;-85
2021/07/29 13:51:24;;;;;;;4.68;3.08;;;;;;;;;;5041428;28;20204;-85
2021/07/29 13:54:28;;;;;;;4.97;3.03;;;;;;;;;;5030137;28;20177;-84
2021/07/29 13:57:32;;;;;;;3.65;2.95;;;;;;;;;;5031117;28;20181;-85
2021/07/29 14:00:36;;;;;;;4.40;3.03;;;;;;;;;;5045004;28;20184;-85
2021/07/29 14:03:40;;;;;;;3.72;3.00;;;;;;;;;;5033699;28;20671;-85
2021/07/29 14:06:44;;;;;;;4.57;3.40;;;;;;;;;;5022168;28;20184;-85
2021/07/29 14:09:48;;;;;;;5.00;3.17;;;;;;;;;;5033150;28;20224;-84
2021/07/29 14:12:52;;;;;;;6.97;3.38;;;;;;;;;;5033124;28;20184;-85
2021/07/29 14:15:56;;;;;;;4.38;3.13;;;;;;;;;;5033171;28;20185;-85
2021/07/29 14:19:03;;;;;;;6.32;3.42;;;;;;;;;;5056432;28;20216;-85
2021/07/29 14:25:17;;;;;;;6.45;3.38;;;;;;;;;;5032862;28;20669;-85
2021/07/29 14:28:21;;;;;;;3.92;3.53;;;;;;;;;;5033147;28;20226;-85
2021/07/29 14:31:26;;;;;;;3.47;3.17;;;;;;;;;;5022189;28;20176;-84
2021/07/29 14:34:30;;;;;;;5.65;3.70;;;;;;;;;;5021489;28;20183;-85
2021/07/29 14:37:34;;;;;;;4.45;3.28;;;;;;;;;;5021811;28;20183;-84
2021/07/29 14:40:38;;;;;;;6.18;3.88;;;;;;;;;;5033345;28;20179;-84
2021/07/29 14:43:43;;;;;;;4.88;3.30;;;;;;;;;;5034042;28;20208;-84
2021/07/29 14:50:10;;;;;;;4.68;3.10;;;;;;;;;;5056629;28;20219;-84
2021/07/29 14:53:15;;;;;;;5.18;3.20;;;;;;;;;;5044264;28;20176;-84
2021/07/29 14:56:24;;;;;;;5.60;3.13;;;;;;;;;;5056155;28;20540;-85
2021/07/29 16:07:03;;;;;;;3.97;3.40;;;;;;;;;;5044246;28;20184;-84
2021/07/29 16:10:24;;;;;;;6.95;3.50;;;;;;;;;;5040815;23;20238;-86
2021/07/29 16:13:29;;;;;;;5.80;3.47;;;;;;;;;;5037969;28;20189;-86
2021/07/29 16:16:35;;;;;;;5.57;3.08;;;;;;;;;;5051245;28;20640;-86
2021/07/29 16:19:42;;;;;;;3.67;3.30;;;;;;;;;;5039471;28;20213;-86
2021/07/29 16:22:46;;;;;;;6.60;2.95;;;;;;;;;;5039749;28;20181;-86
2021/07/29 16:25:50;;;;;;;5.32;3.00;;;;;;;;;;5039281;28;20187;-86
2021/07/29 16:28:59;;;;;;;6.30;3.42;;;;;;;;;;5050460;28;20216;-86
2021/07/29 16:32:03;;;;;;;4.15;3.47;;;;;;;;;;5039558;28;20182;-86
2021/07/29 16:35:07;;;;;;;8.02;3.50;;;;;;;;;;5050464;28;20532;-86
2021/07/29 16:38:11;;;;;;;5.25;3.15;;;;;;;;;;5050821;28;20179;-86
2021/07/29 16:41:18;;;;;;;4.20;3.30;;;;;;;;;;5050865;28;20180;-86
2021/07/29 16:44:22;;;;;;;6.40;3.22;;;;;;;;;;5040001;28;20204;-86
2021/07/29 16:47:26;;;;;;;5.53;3.37;;;;;;;;;;5061799;28;20519;-86
2021/07/29 16:50:31;;;;;;;4.27;2.87;;;;;;;;;;5038888;28;20220;-86
2021/07/29 16:53:35;;;;;;;3.63;3.33;;;;;;;;;;5050579;28;20186;-86
2021/07/29 16:56:38;;;;;;;3.87;3.13;;;;;;;;;;5062309;28;20180;-86
2021/07/29 16:59:42;;;;;;;4.73;3.30;;;;;;;;;;5061743;28;20225;-86
2021/07/29 17:02:46;;;;;;;5.03;3.30;;;;;;;;;;5038688;28;20206;-86
2021/07/29 17:05:51;;;;;;;3.93;3.43;;;;;;;;;;5039364;28;20179;-86
2021/07/29 17:08:55;;;;;;;4.17;3.00;;;;;;;;;;5050247;28;20219;-86
2021/07/29 17:11:59;;;;;;;9.93;3.43;;;;;;;;;;5049948;28;20188;-86
2021/07/29 17:15:04;;;;;;;3.53;3.23;;;;;;;;;;5038946;28;20174;-86
2021/07/29 17:18:08;;;;;;;3.77;3.33;;;;;;;;;;5038639;28;20181;-86
2021/07/29 17:21:12;;;;;;;4.97;3.20;;;;;;;;;;5050340;28;20180;-86
2021/07/29 17:24:16;;;;;;;5.43;3.40;;;;;;;;;;5038614;28;20209;-86
2021/07/29 17:27:20;;;;;;;5.27;3.23;;;;;;;;;;5061279;28;20173;-86
2021/07/29 17:30:24;;;;;;;5.80;3.40;;;;;;;;;;5049841;28;20559;-86
2021/07/29 17:33:29;;;;;;;3.87;3.20;;;;;;;;;;5040650;28;20199;-86
2021/07/29 17:36:33;;;;;;;3.83;3.40;;;;;;;;;;5054478;28;20511;-86
2021/07/29 17:39:37;;;;;;;6.20;3.23;;;;;;;;;;5053882;28;20693;-86
2021/07/29 17:42:41;;;;;;;5.43;3.27;;;;;;;;;;5043350;28;20528;-86
2021/07/29 17:45:46;;;;;;;7.17;3.43;;;;;;;;;;5066243;28;20205;-86
2021/07/29 17:48:49;;;;;;;4.43;3.40;;;;;;;;;;5054209;28;20623;-86
2021/07/29 17:51:54;;;;;;;7.33;2.97;;;;;;;;;;5054261;28;20187;-86
2021/07/29 17:54:58;;;;;;;3.20;2.90;;;;;;;;;;5042507;28;20193;-86
2021/07/29 17:58:03;;;;;;;7.43;3.10;;;;;;;;;;5042571;28;20204;-86
2021/07/29 18:01:07;;;;;;;3.30;2.97;;;;;;;;;;5043733;28;20544;-86
2021/07/29 18:04:11;;;;;;;3.70;3.07;;;;;;;;;;5053790;28;20208;-86
2021/07/29 18:07:15;;;;;;;4.17;3.40;;;;;;;;;;5038579;28;20189;-86
2021/07/29 18:10:20;;;;;;;6.40;3.13;;;;;;;;;;5052960;28;20696;-86
2021/07/29 18:13:24;;;;;;;4.97;3.40;;;;;;;;;;5053341;28;20172;-86
2021/07/29 18:16:33;;;;;;;4.73;3.37;;;;;;;;;;5041875;28;20182;-86
2021/07/29 18:19:37;;;;;;;5.67;3.47;;;;;;;;;;5041084;22;20573;-73
2021/07/29 18:22:42;;;;;;;6.50;3.30;;;;;;;;;;5055286;28;20222;-73
2021/07/29 18:25:46;;;;;;;7.90;3.03;;;;;;;;;;5043694;28;20207;-73
2021/07/29 18:28:50;;;;;;;5.20;3.43;;;;;;;;;;5056774;28;20185;-73
2021/07/29 18:31:54;;;;;;;8.23;3.70;;;;;;;;;;5056241;28;20219;-73
2021/07/29 18:34:58;;;;;;;9.70;3.53;;;;;;;;;;5044167;28;20170;-73
2021/07/29 18:38:03;;;;;;;5.73;3.50;;;;;;;;;;5056087;28;20520;-73
2021/07/29 18:41:08;;;;;;;3.70;3.23;;;;;;;;;;5043928;28;20178;-73
2021/07/29 18:44:13;;;;;;;15.77;3.83;;;;;;;;;;5055739;28;20208;-73
2021/07/29 18:47:17;;;;;;;4.20;3.37;;;;;;;;;;5043836;28;20200;-73
2021/07/29 18:50:22;;;;;;;7.33;3.87;;;;;;;;;;5044160;28;20176;-73
2021/07/29 18:53:26;;;;;;;7.37;3.20;;;;;;;;;;5043901;28;20211;-73
2021/07/29 18:56:30;;;;;;;7.13;3.60;;;;;;;;;;5056019;28;20184;-72
2021/07/29 18:59:34;;;;;;;4.97;4.03;;;;;;;;;;5043891;28;20180;-73
2021/07/29 19:02:38;;;;;;;3.73;3.33;;;;;;;;;;5056168;28;20219;-73
2021/07/29 19:05:43;;;;;;;4.67;3.50;;;;;;;;;;5055855;28;20215;-73
2021/07/29 19:08:47;;;;;;;4.07;3.53;;;;;;;;;;5056048;28;20200;-73
2021/07/29 19:11:51;;;;;;;4.20;3.63;;;;;;;;;;5043430;28;20568;-73
2021/07/29 19:14:55;;;;;;;3.90;3.27;;;;;;;;;;5055764;28;20172;-73
2021/07/29 19:17:59;;;;;;;5.90;3.60;;;;;;;;;;5056234;28;20623;-73
2021/07/29 19:21:05;;;;;;;6.70;3.83;;;;;;;;;;5055742;28;20208;-74
2021/07/29 19:24:09;;;;;;;3.70;3.30;;;;;;;;;;5055480;28;20184;-73
2021/07/29 19:27:13;;;;;;;4.87;4.10;;;;;;;;;;5055924;28;20184;-73
2021/07/29 19:30:18;;;;;;;5.47;3.60;;;;;;;;;;5055281;28;20180;-73
2021/07/29 19:33:22;;;;;;;5.20;4.07;;;;;;;;;;5055467;28;20212;-73
2021/07/29 19:36:26;;;;;;;7.90;3.40;;;;;;;;;;5055813;28;20192;-73
2021/07/29 19:39:30;;;;;;;6.13;3.87;;;;;;;;;;5055137;28;20191;-73
2021/07/29 19:42:34;;;;;;;6.33;4.13;;;;;;;;;;5055427;28;20215;-73
2021/07/29 19:45:38;;;;;;;5.07;3.87;;;;;;;;;;5055014;28;20539;-73
2021/07/29 19:48:43;;;;;;;7.67;3.83;;;;;;;;;;5055685;28;20180;-73
2021/07/29 19:51:47;;;;;;;8.37;4.10;;;;;;;;;;5031766;28;20215;-73
2021/07/29 19:54:51;;;;;;;8.53;3.53;;;;;;;;;;5055288;28;20176;-73
2021/07/29 19:57:55;;;;;;;9.60;4.20;;;;;;;;;;5042755;28;20192;-73
2021/07/29 20:00:59;;;;;;;5.90;4.47;;;;;;;;;;5054879;28;20188;-73
2021/07/29 20:04:04;;;;;;;6.40;4.30;;;;;;;;;;5042804;28;20209;-73
2021/07/29 20:07:08;;;;;;;4.40;3.43;;;;;;;;;;5055688;28;20501;-73
2021/07/29 20:10:13;;;;;;;7.23;4.10;;;;;;;;;;5042605;28;20214;-73
2021/07/29 20:13:17;;;;;;;5.30;3.97;;;;;;;;;;5054591;28;20216;-72
2021/07/29 20:16:21;;;;;;;6.83;4.30;;;;;;;;;;5042735;28;20180;-73
2021/07/29 20:19:26;;;;;;;6.77;4.33;;;;;;;;;;5054688;28;20211;-72
2021/07/29 20:22:29;;;;;;;6.90;4.23;;;;;;;;;;5042310;28;20686;-74